createdAt,value
2019-03-03T00:01:34.436Z,1.80
2019-03-03T00:04:03.709Z,1.90
2019-03-03T00:06:32.866Z,1.40
2019-03-03T00:09:02.115Z,1.60
2019-03-03T00:11:31.274Z,1.80
2019-03-03T00:14:00.476Z,1.60
2019-03-03T00:16:29.726Z,2.13
2019-03-03T00:18:58.942Z,1.83
2019-03-03T00:21:28.181Z,2.10
2019-03-03T00:23:57.434Z,1.97
2019-03-03T00:26:26.664Z,1.80
2019-03-03T00:28:55.914Z,1.70
2019-03-03T00:31:36.906Z,1.77
2019-03-03T00:34:06.248Z,1.40
2019-03-03T00:37:12.860Z,1.40
2019-03-03T00:39:59.878Z,1.93
2019-03-03T00:42:42.679Z,1.63
2019-03-03T00:45:40.905Z,1.43
2019-03-03T00:48:24.520Z,1.70
2019-03-03T00:51:12.678Z,2.03
2019-03-03T00:53:49.014Z,2.03
2019-03-03T00:56:36.059Z,1.77
2019-03-03T00:59:14.868Z,1.90
2019-03-03T01:01:54.791Z,2.03
2019-03-03T01:04:41.728Z,1.80
2019-03-03T01:07:29.531Z,1.77
2019-03-03T01:10:06.119Z,1.50
2019-03-03T01:17:08.484Z,1.47
2019-03-03T01:19:45.497Z,1.60
2019-03-03T01:22:24.609Z,1.50
2019-03-03T01:24:55.581Z,1.47
2019-03-03T01:27:25.808Z,1.57
2019-03-03T01:29:54.973Z,2.00
2019-03-03T01:32:24.178Z,1.70
2019-03-03T01:34:53.376Z,1.90
2019-03-03T01:37:22.532Z,2.20
2019-03-03T01:39:51.689Z,1.50
2019-03-03T01:42:20.805Z,1.63
2019-03-03T01:44:50.038Z,1.50
2019-03-03T01:47:19.261Z,1.87
2019-03-03T01:49:48.509Z,1.60
2019-03-03T01:52:17.637Z,1.60
2019-03-03T01:55:06.138Z,1.20
2019-03-03T01:57:35.392Z,1.50
2019-03-03T02:00:09.007Z,1.60
2019-03-03T02:02:38.268Z,1.40
2019-03-03T02:05:07.654Z,1.67
2019-03-03T02:07:36.914Z,1.87
2019-03-03T02:10:06.491Z,1.60
2019-03-03T02:12:35.743Z,1.57
2019-03-03T02:15:05.983Z,2.23
2019-03-03T02:17:35.326Z,1.50
2019-03-03T02:20:04.834Z,2.10
2019-03-03T02:22:34.105Z,1.60
2019-03-03T02:25:03.410Z,1.70
2019-03-03T02:27:32.733Z,1.67
2019-03-03T02:30:02.019Z,1.60
2019-03-03T02:32:31.505Z,1.57
2019-03-03T02:35:00.803Z,2.00
2019-03-03T02:37:30.082Z,1.50
2019-03-03T02:39:59.351Z,1.77
2019-03-03T02:42:28.632Z,1.90
2019-03-03T02:44:57.927Z,1.27
2019-03-03T02:47:27.192Z,1.70
2019-03-03T02:49:56.487Z,1.50
2019-03-03T02:52:25.732Z,1.40
2019-03-03T02:54:55.038Z,1.93
2019-03-03T02:57:24.312Z,1.60
2019-03-03T02:59:53.488Z,1.60
2019-03-03T03:02:50.602Z,1.60
2019-03-03T03:05:31.582Z,1.87
2019-03-03T03:08:06.935Z,1.40
2019-03-03T03:10:46.921Z,1.87
2019-03-03T03:13:35.803Z,1.60
2019-03-03T03:16:13.736Z,1.53
2019-03-03T03:18:54.020Z,1.27
2019-03-03T03:21:41.137Z,1.60
2019-03-03T03:24:20.435Z,1.43
2019-03-03T03:26:55.703Z,2.40
2019-03-03T03:29:30.777Z,1.67
2019-03-03T03:32:18.062Z,1.70
2019-03-03T03:34:56.778Z,1.93
2019-03-03T03:37:40.322Z,2.47
2019-03-03T03:40:34.937Z,1.97
2019-03-03T03:43:16.770Z,2.00
2019-03-03T03:46:00.855Z,1.60
2019-03-03T03:48:57.921Z,2.60
2019-03-03T03:51:44.850Z,1.87
2019-03-03T03:54:34.875Z,2.17
2019-03-03T03:57:23.266Z,1.90
2019-03-03T04:00:07.303Z,1.83
2019-03-03T04:02:54.114Z,2.23
2019-03-03T04:05:45.338Z,2.17
2019-03-03T04:08:20.687Z,1.83
2019-03-03T04:11:08.036Z,2.27
2019-03-03T04:13:48.424Z,2.27
2019-03-03T04:16:51.671Z,2.23
2019-03-03T04:19:25.378Z,1.70
2019-03-03T04:22:23.506Z,2.13
2019-03-03T04:25:17.780Z,2.73
2019-03-03T04:28:11.917Z,2.03
2019-03-03T04:31:05.971Z,2.23
2019-03-03T04:33:50.014Z,2.40
2019-03-03T04:36:44.437Z,3.07
2019-03-03T04:39:38.547Z,1.90
2019-03-03T04:42:32.661Z,2.00
2019-03-03T04:45:20.872Z,2.60
2019-03-03T04:48:01.638Z,2.60
2019-03-03T04:51:01.860Z,2.60
2019-03-03T04:53:50.067Z,2.13
2019-03-03T04:56:34.715Z,2.30
2019-03-03T04:59:25.703Z,2.53
2019-03-03T05:02:13.959Z,1.70
2019-03-03T05:04:58.426Z,1.97
2019-03-03T05:07:47.654Z,2.30
2019-03-03T05:10:38.660Z,2.30
2019-03-03T05:13:42.639Z,2.30
2019-03-03T05:16:45.726Z,2.40
2019-03-03T05:19:34.114Z,2.67
2019-03-03T05:22:03.414Z,2.60
2019-03-03T05:24:34.546Z,3.30
2019-03-03T05:27:03.710Z,2.30
2019-03-03T05:29:33.018Z,2.30
2019-03-03T05:32:02.294Z,2.63
2019-03-03T05:34:31.617Z,2.20
2019-03-03T05:37:00.875Z,2.33
2019-03-03T05:39:30.171Z,2.50
2019-03-03T05:41:59.441Z,2.03
2019-03-03T05:44:28.739Z,2.63
2019-03-03T05:46:58.012Z,2.60
2019-03-03T05:49:27.325Z,2.23
2019-03-03T05:51:56.575Z,3.10
2019-03-03T05:54:25.924Z,2.47
2019-03-03T05:56:55.283Z,2.17
2019-03-03T05:59:24.556Z,2.20
2019-03-03T06:01:53.815Z,3.20
2019-03-03T06:04:23.112Z,2.63
2019-03-03T06:06:52.377Z,2.63
2019-03-03T06:09:21.652Z,2.80
2019-03-03T06:11:50.919Z,2.60
2019-03-03T06:14:20.178Z,2.03
2019-03-03T06:16:49.499Z,2.97
2019-03-03T06:19:18.775Z,2.67
2019-03-03T06:21:48.098Z,2.30
2019-03-03T06:24:17.409Z,2.60
2019-03-03T06:26:46.686Z,2.43
2019-03-03T06:29:15.982Z,3.50
2019-03-03T06:31:45.274Z,2.10
2019-03-03T06:34:14.549Z,2.97
2019-03-03T06:36:43.875Z,3.13
2019-03-03T06:39:13.196Z,2.60
2019-03-03T06:41:42.504Z,2.13
2019-03-03T06:44:11.767Z,2.47
2019-03-03T06:46:41.039Z,3.17
2019-03-03T06:49:10.327Z,2.70
2019-03-03T06:51:39.590Z,2.43
2019-03-03T06:54:09.180Z,2.67
2019-03-03T06:56:38.466Z,1.80
2019-03-03T06:59:08.004Z,2.70
2019-03-03T07:01:37.304Z,2.37
2019-03-03T07:04:06.577Z,1.70
2019-03-03T07:06:35.977Z,2.60
2019-03-03T07:09:06.229Z,2.27
2019-03-03T07:11:35.514Z,2.80
2019-03-03T07:14:04.760Z,2.30
2019-03-03T07:16:34.063Z,2.43
2019-03-03T07:19:03.429Z,2.27
2019-03-03T07:21:32.713Z,2.00
2019-03-03T07:24:01.968Z,2.40
2019-03-03T07:26:31.240Z,1.73
2019-03-03T07:29:00.578Z,2.60
2019-03-03T07:31:29.932Z,2.20
2019-03-03T07:34:01.700Z,2.53
2019-03-03T07:36:32.173Z,2.60
2019-03-03T07:39:01.506Z,2.87
2019-03-03T07:41:30.816Z,1.80
2019-03-03T07:44:00.047Z,2.27
2019-03-03T07:46:29.399Z,2.27
2019-03-03T07:48:58.672Z,2.30
2019-03-03T07:51:27.968Z,2.20
2019-03-03T07:53:57.284Z,2.70
2019-03-03T07:56:26.646Z,1.77
2019-03-03T07:58:55.976Z,2.20
2019-03-03T08:01:25.415Z,2.13
2019-03-03T08:03:54.711Z,1.93
2019-03-03T08:06:23.977Z,1.90
2019-03-03T08:08:53.269Z,1.57
2019-03-03T08:11:23.204Z,1.70
2019-03-03T08:13:56.124Z,2.63
2019-03-03T08:16:25.448Z,2.20
2019-03-03T08:18:55.996Z,2.50
2019-03-03T08:21:25.405Z,2.40
2019-03-03T08:23:54.886Z,2.20
2019-03-03T08:26:36.627Z,2.43
2019-03-03T08:29:05.887Z,2.30
2019-03-03T08:31:41.553Z,1.90
2019-03-03T08:34:15.016Z,1.87
2019-03-03T08:36:49.800Z,3.07
2019-03-03T08:39:19.135Z,2.60
2019-03-03T08:41:53.197Z,2.40
2019-03-03T08:44:33.679Z,2.37
2019-03-03T08:47:20.516Z,1.83
2019-03-03T08:50:15.463Z,2.00
2019-03-03T08:53:13.073Z,2.40
2019-03-03T08:56:01.323Z,2.03
2019-03-03T08:58:58.691Z,2.07
2019-03-03T09:01:38.723Z,2.07
2019-03-03T09:04:14.239Z,2.20
2019-03-03T09:06:50.077Z,1.63
2019-03-03T09:09:28.420Z,2.10
2019-03-03T09:12:10.951Z,2.13
2019-03-03T09:15:08.488Z,1.80
2019-03-03T09:17:54.571Z,1.10
2019-03-03T09:20:42.822Z,1.50
2019-03-03T09:23:46.125Z,1.67
2019-03-03T09:26:33.198Z,1.20
2019-03-03T09:29:21.477Z,1.63
2019-03-03T09:32:12.563Z,1.13
2019-03-03T09:34:53.686Z,1.37
2019-03-03T09:37:31.968Z,1.97
2019-03-03T09:40:20.299Z,1.97
2019-03-03T09:43:40.492Z,1.53
2019-03-03T09:46:27.063Z,1.50
2019-03-03T09:49:17.185Z,1.20
2019-03-03T09:52:19.191Z,1.60
2019-03-03T09:54:56.547Z,1.80
2019-03-03T09:57:43.030Z,1.60
2019-03-03T10:00:30.971Z,1.90
2019-03-03T10:03:17.967Z,1.67
2019-03-03T10:06:12.512Z,1.93
2019-03-03T10:09:16.027Z,1.40
2019-03-03T10:12:02.819Z,1.53
2019-03-03T10:14:54.113Z,1.93
2019-03-03T10:17:41.027Z,1.40
2019-03-03T10:20:26.943Z,1.40
2019-03-03T10:23:18.989Z,1.47
2019-03-03T10:26:06.189Z,1.43
2019-03-03T10:29:12.978Z,1.20
2019-03-03T10:32:07.442Z,1.13
2019-03-03T10:35:05.009Z,1.70
2019-03-03T10:37:43.138Z,1.10
2019-03-03T10:40:31.608Z,1.50
2019-03-03T10:43:31.861Z,1.23
2019-03-03T10:46:26.176Z,1.20
2019-03-03T10:49:16.524Z,1.23
2019-03-03T10:52:07.653Z,1.20
2019-03-03T10:54:48.921Z,1.00
2019-03-03T10:57:36.269Z,1.03
2019-03-03T11:00:26.714Z,1.33
2019-03-03T11:03:20.963Z,1.07
2019-03-03T11:06:08.100Z,2.13
2019-03-03T11:08:47.281Z,1.07
2019-03-03T11:11:54.079Z,1.13
2019-03-03T11:14:33.498Z,1.07
2019-03-03T11:17:20.084Z,1.00
2019-03-03T11:20:07.314Z,1.03
2019-03-03T11:23:00.273Z,1.27
2019-03-03T11:25:48.835Z,1.23
2019-03-03T11:28:40.153Z,1.00
2019-03-03T11:31:22.072Z,1.60
2019-03-03T11:34:08.938Z,1.60
2019-03-03T11:37:03.538Z,1.10
2019-03-03T11:39:48.736Z,1.37
2019-03-03T11:42:31.315Z,1.50
2019-03-03T11:45:22.421Z,1.10
2019-03-03T11:48:19.912Z,1.73
2019-03-03T11:51:11.875Z,1.27
2019-03-03T11:53:47.114Z,1.30
2019-03-03T11:56:34.338Z,1.50
2019-03-03T11:59:18.993Z,1.30
2019-03-03T12:02:11.933Z,1.20
2019-03-03T12:04:58.798Z,1.20
2019-03-03T12:07:47.489Z,1.00
2019-03-03T12:10:35.936Z,1.33
2019-03-03T12:13:23.524Z,1.10
2019-03-03T12:16:01.820Z,1.00
2019-03-03T12:18:49.186Z,1.20
2019-03-03T12:21:49.747Z,1.30
2019-03-03T12:24:38.082Z,1.70
2019-03-03T12:27:24.556Z,1.00
2019-03-03T12:30:06.725Z,1.03
2019-03-03T12:33:04.368Z,1.50
2019-03-03T12:35:43.267Z,1.47
2019-03-03T12:38:40.819Z,1.17
2019-03-03T12:41:35.151Z,1.40
2019-03-03T12:44:12.609Z,1.60
2019-03-03T12:46:55.947Z,1.17
2019-03-03T12:49:44.277Z,1.53
2019-03-03T12:52:31.375Z,1.37
2019-03-03T12:55:18.560Z,1.20
2019-03-03T12:58:12.751Z,1.60
2019-03-03T13:00:57.945Z,1.30
2019-03-03T13:03:37.123Z,1.83
2019-03-03T13:06:30.346Z,1.57
2019-03-03T13:09:18.416Z,2.73
2019-03-03T13:12:12.476Z,1.10
2019-03-03T13:15:00.733Z,1.10
2019-03-03T13:17:48.439Z,1.40
2019-03-03T13:20:25.971Z,1.23
2019-03-03T13:23:04.813Z,1.50
2019-03-03T13:26:02.383Z,1.30
2019-03-03T13:28:59.726Z,1.40
2019-03-03T13:31:39.255Z,1.27
2019-03-03T13:34:35.769Z,1.57
2019-03-03T13:37:39.380Z,1.57
2019-03-03T13:40:43.716Z,1.47
2019-03-03T13:43:26.248Z,1.07
2019-03-03T13:45:55.568Z,0.93
2019-03-03T13:48:24.868Z,1.10
2019-03-03T13:50:54.304Z,1.50
2019-03-03T13:53:23.680Z,1.10
2019-03-03T13:55:52.995Z,1.63
2019-03-03T13:58:22.414Z,1.50
2019-03-03T14:00:51.846Z,1.30
2019-03-03T14:03:21.153Z,1.47
2019-03-03T14:05:50.509Z,1.63
2019-03-03T14:08:19.853Z,2.17
2019-03-03T14:10:49.283Z,1.33
2019-03-03T14:13:18.622Z,1.57
2019-03-03T14:15:47.981Z,1.50
2019-03-03T14:18:17.354Z,1.50
2019-03-03T14:20:46.800Z,2.27
2019-03-03T14:23:16.135Z,1.43
2019-03-03T14:25:45.519Z,1.40
2019-03-03T14:28:14.869Z,1.83
2019-03-03T14:30:45.278Z,1.30
2019-03-03T14:33:14.711Z,1.40
2019-03-03T14:35:44.218Z,1.27
2019-03-03T14:38:16.239Z,1.90
2019-03-03T14:40:45.530Z,1.50
2019-03-03T14:43:14.851Z,1.40
2019-03-03T14:45:44.246Z,1.77
2019-03-03T14:48:13.746Z,1.70
2019-03-03T14:50:43.139Z,1.20
2019-03-03T14:53:13.683Z,1.30
2019-03-03T14:55:43.071Z,1.60
2019-03-03T14:58:14.151Z,1.47
2019-03-03T15:00:43.488Z,1.87
2019-03-03T15:03:12.844Z,1.50
2019-03-03T15:05:42.184Z,1.70
2019-03-03T15:08:11.637Z,1.40
2019-03-03T15:10:41.086Z,1.23
2019-03-03T15:13:11.516Z,2.03
2019-03-03T15:15:40.971Z,1.10
2019-03-03T15:18:10.535Z,1.77
2019-03-03T15:20:39.841Z,1.70
2019-03-03T15:23:09.205Z,1.63
2019-03-03T15:25:38.740Z,2.23
2019-03-03T15:28:08.054Z,2.27
2019-03-03T15:30:37.432Z,1.10
2019-03-03T15:33:06.812Z,1.40
2019-03-03T15:35:36.209Z,1.40
2019-03-03T15:38:05.547Z,1.23
2019-03-03T15:40:34.878Z,1.70
2019-03-03T15:43:04.229Z,1.20
2019-03-03T15:45:33.587Z,1.60
2019-03-03T15:48:09.263Z,1.30
2019-03-03T15:50:38.826Z,1.47
2019-03-03T15:53:08.400Z,1.60
2019-03-03T15:55:37.727Z,1.53
2019-03-03T15:58:07.147Z,1.40
2019-03-03T16:00:36.723Z,1.33
2019-03-03T16:03:06.469Z,1.20
2019-03-03T16:05:35.816Z,1.40
2019-03-03T16:08:05.385Z,1.33
2019-03-03T16:10:34.779Z,1.20
2019-03-03T16:13:04.203Z,1.30
2019-03-03T16:15:33.508Z,1.17
2019-03-03T16:18:02.891Z,1.80
2019-03-03T16:20:32.199Z,1.40
2019-03-03T16:23:01.492Z,1.57
2019-03-03T16:25:30.911Z,1.37
2019-03-03T16:28:00.270Z,1.70
2019-03-03T16:30:29.631Z,1.20
2019-03-03T16:32:59.019Z,1.10
2019-03-03T16:35:28.318Z,1.97
2019-03-03T16:37:57.635Z,1.33
2019-03-03T16:40:26.973Z,1.50
2019-03-03T16:42:56.299Z,1.77
2019-03-03T16:45:25.612Z,1.60
2019-03-03T16:47:54.976Z,1.20
2019-03-03T16:50:24.286Z,1.57
2019-03-03T16:52:53.679Z,1.43
2019-03-03T16:55:23.077Z,1.63
2019-03-03T16:57:52.451Z,1.30
2019-03-03T17:00:22.375Z,2.33
2019-03-03T17:02:51.764Z,1.37
2019-03-03T17:05:21.704Z,1.30
2019-03-03T17:07:51.321Z,1.90
2019-03-03T17:10:20.682Z,1.30
2019-03-03T17:12:50.092Z,1.63
2019-03-03T17:15:20.755Z,1.30
2019-03-03T17:17:50.245Z,1.90
2019-03-03T17:20:19.688Z,1.57
2019-03-03T17:22:49.144Z,1.70
2019-03-03T17:25:20.157Z,1.63
2019-03-03T17:27:49.524Z,1.40
2019-03-03T17:30:20.401Z,1.40
2019-03-03T17:32:49.897Z,1.17
2019-03-03T17:35:19.656Z,1.43
2019-03-03T17:37:49.367Z,1.60
2019-03-03T17:40:20.021Z,1.33
2019-03-03T17:42:49.767Z,2.13
2019-03-03T17:45:20.358Z,1.70
2019-03-03T17:47:50.215Z,1.87
2019-03-03T17:50:20.519Z,1.23
2019-03-03T17:52:49.957Z,1.20
2019-03-03T17:55:19.455Z,1.20
2019-03-03T17:57:49.073Z,1.90
2019-03-03T18:00:20.894Z,1.53
2019-03-03T18:02:50.487Z,1.80
2019-03-03T18:05:20.775Z,1.63
2019-03-03T18:07:50.622Z,1.43
2019-03-03T18:10:20.264Z,1.90
2019-03-03T18:12:49.714Z,1.60
2019-03-03T18:15:19.325Z,1.30
2019-03-03T18:17:50.434Z,1.50
2019-03-03T18:20:20.099Z,1.40
2019-03-03T18:22:49.830Z,1.30
2019-03-03T18:25:19.445Z,1.33
2019-03-03T18:27:49.102Z,1.30
2019-03-03T18:30:20.652Z,1.50
2019-03-03T18:32:50.229Z,1.40
2019-03-03T18:35:19.570Z,1.60
2019-03-03T18:37:49.110Z,1.63
2019-03-03T18:40:20.095Z,1.83
2019-03-03T18:42:49.729Z,1.83
2019-03-03T18:45:19.516Z,1.60
2019-03-03T18:47:49.965Z,1.40
2019-03-03T18:50:19.654Z,1.47
2019-03-03T18:52:49.225Z,1.20
2019-03-03T18:55:18.745Z,1.20
2019-03-03T18:57:48.403Z,1.57
2019-03-03T19:00:22.660Z,1.57
2019-03-03T19:02:52.645Z,1.70
2019-03-03T19:05:24.891Z,2.23
2019-03-03T19:07:54.785Z,1.80
2019-03-03T19:10:25.366Z,1.60
2019-03-03T19:12:54.877Z,2.00
2019-03-03T19:15:24.177Z,1.87
2019-03-03T19:17:53.521Z,1.80
2019-03-03T19:20:23.150Z,2.47
2019-03-03T19:22:52.551Z,1.77
2019-03-03T19:25:22.315Z,2.37
2019-03-03T19:27:51.679Z,1.67
2019-03-03T19:30:25.031Z,2.23
2019-03-03T19:33:19.133Z,2.00
2019-03-03T19:35:48.748Z,1.53
2019-03-03T19:38:18.143Z,1.90
2019-03-03T19:40:47.502Z,2.20
2019-03-03T19:43:16.848Z,1.70
2019-03-03T19:45:46.190Z,2.00
2019-03-03T19:48:15.553Z,2.60
2019-03-03T19:50:44.852Z,1.47
2019-03-03T19:53:14.361Z,2.10
2019-03-03T19:55:43.692Z,2.00
2019-03-03T19:58:13.152Z,2.20
2019-03-03T20:00:43.289Z,1.90
2019-03-03T20:03:17.009Z,2.20
2019-03-03T20:05:47.087Z,2.07
2019-03-03T20:08:16.469Z,1.80
2019-03-03T20:11:11.613Z,2.33
2019-03-03T20:13:41.131Z,1.90
2019-03-03T20:16:10.638Z,1.53
2019-03-03T20:18:41.321Z,2.40
2019-03-03T20:21:10.804Z,2.00
2019-03-03T20:23:40.099Z,2.30
2019-03-03T20:26:09.450Z,1.83
2019-03-03T20:28:38.845Z,1.90
2019-03-03T20:31:08.171Z,1.63
2019-03-03T20:33:39.676Z,2.20
2019-03-03T20:36:09.013Z,1.73
2019-03-03T20:38:38.419Z,2.03
2019-03-03T20:41:07.751Z,2.17
2019-03-03T20:43:37.059Z,2.00
2019-03-03T20:46:06.401Z,1.80
2019-03-03T20:48:35.857Z,2.10
2019-03-03T20:51:05.402Z,1.80
2019-03-03T20:53:34.748Z,1.90
2019-03-03T20:56:04.081Z,1.67
2019-03-03T20:58:33.408Z,1.70
2019-03-03T21:01:02.797Z,1.33
2019-03-03T21:03:32.167Z,2.23
2019-03-03T21:06:01.494Z,1.60
2019-03-03T21:08:30.883Z,1.77
2019-03-03T21:11:00.469Z,1.90
2019-03-03T21:13:29.793Z,1.80
2019-03-03T21:15:59.164Z,1.70
2019-03-03T21:18:28.497Z,1.83
2019-03-03T21:20:57.797Z,1.50
2019-03-03T21:23:27.103Z,1.83
2019-03-03T21:25:56.842Z,1.30
2019-03-03T21:28:26.179Z,1.90
2019-03-03T21:30:55.574Z,2.23
2019-03-03T21:33:24.935Z,1.17
2019-03-03T21:35:54.300Z,1.27
2019-03-03T21:38:23.695Z,1.50
2019-03-03T21:40:53.303Z,1.60
2019-03-03T21:43:22.687Z,1.37
2019-03-03T21:45:52.071Z,1.57
2019-03-03T21:48:21.388Z,1.57
2019-03-03T21:50:50.728Z,1.40
2019-03-03T21:53:20.034Z,1.60
2019-03-03T21:55:49.830Z,1.80
2019-03-03T21:58:19.112Z,1.60
2019-03-03T22:00:48.403Z,1.70
2019-03-03T22:03:17.806Z,1.30
2019-03-03T22:05:47.420Z,1.50
2019-03-03T22:08:16.748Z,1.40
2019-03-03T22:10:46.133Z,1.33
2019-03-03T22:13:15.384Z,1.40
2019-03-03T22:15:44.726Z,1.20
2019-03-03T22:18:14.030Z,1.40
2019-03-03T22:20:43.344Z,1.73
2019-03-03T22:23:12.646Z,1.50
2019-03-03T22:25:42.036Z,1.70
2019-03-03T22:28:11.479Z,1.57
2019-03-03T22:30:40.792Z,1.43
2019-03-03T22:33:10.117Z,1.70
2019-03-03T22:35:41.200Z,1.30
2019-03-03T22:38:10.479Z,1.63
2019-03-03T22:40:39.806Z,1.40
2019-03-03T22:43:09.185Z,1.10
2019-03-03T22:45:38.605Z,1.27
2019-03-03T22:48:09.205Z,1.47
2019-03-03T22:50:39.643Z,1.90
2019-03-03T22:53:08.958Z,2.03
2019-03-03T22:55:40.479Z,1.50
2019-03-03T22:58:09.938Z,1.17
2019-03-03T23:00:58.194Z,1.47
2019-03-03T23:03:34.336Z,1.60
2019-03-03T23:06:31.123Z,1.03
2019-03-03T23:09:55.064Z,1.20
2019-03-03T23:12:42.353Z,1.40
2019-03-03T23:15:40.259Z,1.63
2019-03-03T23:19:05.880Z,1.30
2019-03-03T23:21:51.782Z,1.40
2019-03-03T23:24:54.135Z,1.20
2019-03-03T23:27:42.550Z,1.70
2019-03-03T23:30:30.897Z,1.10
2019-03-03T23:33:00.226Z,1.33
2019-03-03T23:35:29.483Z,1.20
2019-03-03T23:37:58.802Z,1.50
2019-03-03T23:40:28.156Z,1.40
2019-03-03T23:42:57.975Z,1.37
2019-03-03T23:45:27.273Z,1.13
2019-03-03T23:47:56.571Z,1.40
2019-03-03T23:50:25.931Z,1.87
2019-03-03T23:52:55.236Z,1.50
2019-03-03T23:55:24.535Z,1.37
2019-03-03T23:57:54.122Z,1.23
